Time,TemperatureF,DewpointF,PressureIn,WindDirection,WindDirectionDegrees,WindSpeedMPH,WindSpeedGustMPH,Humidity,HourlyPrecipIn,Conditions,Clouds,dailyrainin,SoftwareType,DateUTC
2013-04-10 00:02:00,72.7,71.8,29.68,SE,141,16.1,16.1,97,0.00,CLR,,0.00,WeatherDisplay:10.37,2013-04-10 05:02:00,
2013-04-10 00:07:00,72.7,71.8,29.67,South,189,13.8,13.8,97,0.00,CLR,,0.00,WeatherDisplay:10.37,2013-04-10 05:07:00,
2013-04-10 00:12:00,72.6,71.7,29.68,East,96,18.4,18.4,97,0.00,CLR,,0.00,WeatherDisplay:10.37,2013-04-10 05:12:00,
2013-04-10 00:17:00,72.5,71.6,29.68,ESE,117,9.2,9.2,97,0.00,CLR,,0.00,WeatherDisplay:10.37,2013-04-10 05:17:00,
2013-04-10 00:22:00,72.5,71.6,29.68,ESE,115,5.8,5.8,97,0.00,CLR,,0.00,WeatherDisplay:10.37,2013-04-10 05:22:00,
2013-04-10 00:27:00,72.5,71.6,29.68,SSE,158,18.4,18.4,97,0.00,CLR,,0.00,WeatherDisplay:10.37,2013-04-10 05:27:00,
2013-04-10 00:32:00,72.5,71.6,29.68,ESE,104,11.5,11.5,97,0.00,CLR,,0.00,WeatherDisplay:10.37,2013-04-10 05:32:00,
2013-04-10 00:37:00,72.5,71.6,29.68,SE,141,10.4,10.5,97,0.00,CLR,,0.00,WeatherDisplay:10.37,2013-04-10 05:37:00,
2013-04-10 00:42:00,72.5,71.6,29.68,SE,132,10.4,10.4,97,0.00,CLR,,0.00,WeatherDisplay:10.37,2013-04-10 05:42:00,
2013-04-10 00:47:00,72.5,71.6,29.68,East,94,5.8,6.5,97,0.00,CLR,,0.00,WeatherDisplay:10.37,2013-04-10 05:47:00,
2013-04-10 00:52:00,72.5,71.6,29.67,SE,137,12.7,12.7,97,0.00,CLR,,0.00,WeatherDisplay:10.37,2013-04-10 05:52:00,
2013-04-10 00:57:00,72.5,71.6,29.67,East,88,9.2,9.2,97,0.00,CLR,,0.00,WeatherDisplay:10.37,2013-04-10 05:57:00,
2013-04-10 01:02:00,72.4,71.5,29.67,SE,129,11.5,11.5,97,0.00,CLR,,0.00,WeatherDisplay:10.37,2013-04-10 06:02:00,
2013-04-10 01:07:00,72.4,71.5,29.67,SE,126,6.9,6.9,97,0.00,CLR,,0.00,WeatherDisplay:10.37,2013-04-10 06:07:00,
2013-04-10 01:12:00,72.4,71.5,29.68,SE,136,13.8,13.8,97,0.00,CLR,,0.00,WeatherDisplay:10.37,2013-04-10 06:12:00,
2013-04-10 01:17:00,72.4,71.5,29.68,ESE,113,11.5,11.5,97,0.00,CLR,,0.00,WeatherDisplay:10.37,2013-04-10 06:17:00,
2013-04-10 01:22:00,72.4,71.5,29.68,SSE,167,9.2,9.2,97,0.00,CLR,,0.00,WeatherDisplay:10.37,2013-04-10 06:22:00,
2013-04-10 01:27:00,72.3,71.4,29.68,ESE,120,15.0,15.0,97,0.00,CLR,,0.00,WeatherDisplay:10.37,2013-04-10 06:27:00,
2013-04-10 01:32:00,72.4,71.5,29.68,East,92,10.4,10.4,97,0.00,CLR,,0.00,WeatherDisplay:10.37,2013-04-10 06:32:00,
2013-04-10 01:37:00,72.4,71.5,29.68,ESE,110,11.6,11.6,97,0.00,CLR,,0.00,WeatherDisplay:10.37,2013-04-10 06:37:00,
2013-04-10 01:42:00,72.4,71.5,29.68,South,187,11.5,11.5,97,0.00,CLR,,0.00,WeatherDisplay:10.37,2013-04-10 06:42:00,
2013-04-10 01:47:00,72.4,71.5,29.68,SE,139,11.5,11.5,97,0.00,CLR,,0.00,WeatherDisplay:10.37,2013-04-10 06:47:00,
2013-04-10 01:52:00,72.5,71.6,29.68,SSE,165,9.4,9.4,97,0.00,CLR,,0.00,WeatherDisplay:10.37,2013-04-10 06:52:00,
2013-04-10 01:57:00,72.4,71.5,29.68,East,98,6.9,6.9,97,0.00,CLR,,0.00,WeatherDisplay:10.37,2013-04-10 06:57:00,
2013-04-10 02:02:00,72.4,71.5,29.68,South,169,9.2,9.2,97,0.00,CLR,,0.00,WeatherDisplay:10.37,2013-04-10 07:02:00,
2013-04-10 02:07:00,72.3,71.4,29.68,SE,130,10.4,10.4,97,0.00,CLR,,0.00,WeatherDisplay:10.37,2013-04-10 07:07:00,
2013-04-10 02:12:00,72.2,71.3,29.67,SSW,193,9.2,9.2,97,0.00,CLR,,0.00,WeatherDisplay:10.37,2013-04-10 07:12:00,
2013-04-10 02:17:00,72.2,71.3,29.67,ESE,108,11.6,11.6,97,0.00,CLR,,0.00,WeatherDisplay:10.37,2013-04-10 07:17:00,
2013-04-10 02:22:00,72.2,71.3,29.67,SE,128,11.6,11.6,97,0.00,CLR,,0.00,WeatherDisplay:10.37,2013-04-10 07:22:00,
2013-04-10 02:27:00,72.2,71.6,29.66,SSE,150,11.5,11.5,98,0.00,CLR,,0.00,WeatherDisplay:10.37,2013-04-10 07:27:00,
2013-04-10 02:32:00,72.3,71.7,29.66,SSE,149,11.5,11.5,98,0.00,CLR,,0.00,WeatherDisplay:10.37,2013-04-10 07:32:00,
2013-04-10 02:37:00,72.3,71.7,29.66,SSW,193,9.2,9.2,98,0.00,CLR,,0.00,WeatherDisplay:10.37,2013-04-10 07:37:00,
2013-04-10 02:42:00,72.3,71.4,29.66,SSW,195,16.1,16.1,97,0.00,CLR,,0.00,WeatherDisplay:10.37,2013-04-10 07:42:00,
2013-04-10 02:47:00,72.2,71.6,29.65,ESE,103,10.4,10.4,98,0.00,CLR,,0.00,WeatherDisplay:10.37,2013-04-10 07:47:00,
2013-04-10 02:52:00,72.1,71.5,29.65,ESE,115,9.2,9.2,98,0.00,CLR,,0.00,WeatherDisplay:10.37,2013-04-10 07:52:00,
2013-04-10 02:57:00,72.1,71.5,29.65,South,184,10.4,10.4,98,0.00,CLR,,0.00,WeatherDisplay:10.37,2013-04-10 07:57:00,
2013-04-10 03:02:00,72.1,71.5,29.65,SE,137,10.4,10.4,98,0.00,CLR,,0.00,WeatherDisplay:10.37,2013-04-10 08:02:00,
2013-04-10 03:07:00,72.1,71.5,29.64,ESE,120,15.0,15.0,98,0.00,CLR,,0.00,WeatherDisplay:10.37,2013-04-10 08:07:00,
2013-04-10 03:12:00,72.0,71.4,29.64,SE,142,11.5,11.5,98,0.00,CLR,,0.00,WeatherDisplay:10.37,2013-04-10 08:12:00,
2013-04-10 03:17:00,72.0,71.4,29.64,SE,128,11.5,11.5,98,0.00,CLR,,0.00,WeatherDisplay:10.37,2013-04-10 08:17:00,
2013-04-10 03:22:00,72.0,71.4,29.64,SSE,153,11.5,11.5,98,0.00,CLR,,0.00,WeatherDisplay:10.37,2013-04-10 08:22:00,
2013-04-10 03:27:00,72.0,71.4,29.63,South,172,10.4,10.4,98,0.00,CLR,,0.00,WeatherDisplay:10.37,2013-04-10 08:27:00,
2013-04-10 03:32:00,71.9,71.3,29.63,ESE,110,9.2,9.2,98,0.00,CLR,,0.00,WeatherDisplay:10.37,2013-04-10 08:32:00,
2013-04-10 03:37:00,71.9,71.3,29.63,SE,139,11.5,11.5,98,0.00,CLR,,0.00,WeatherDisplay:10.37,2013-04-10 08:37:00,
2013-04-10 03:42:00,71.8,71.2,29.63,South,184,13.8,13.8,98,0.00,CLR,,0.00,WeatherDisplay:10.37,2013-04-10 08:42:00,
2013-04-10 03:47:00,71.8,71.2,29.63,ESE,104,8.1,8.1,98,0.00,CLR,,0.00,WeatherDisplay:10.37,2013-04-10 08:47:00,
2013-04-10 03:52:00,71.6,71.0,29.62,ESE,107,13.7,13.7,98,0.00,CLR,,0.00,WeatherDisplay:10.37,2013-04-10 08:52:00,
2013-04-10 03:57:00,71.6,71.0,29.62,SE,143,12.7,12.7,98,0.00,CLR,,0.00,WeatherDisplay:10.37,2013-04-10 08:57:00,
2013-04-10 04:02:00,71.6,71.0,29.62,SE,126,15.0,15.0,98,0.00,CLR,,0.00,WeatherDisplay:10.37,2013-04-10 09:02:00,
2013-04-10 04:07:00,71.5,70.9,29.61,SE,129,9.2,9.2,98,0.00,CLR,,0.00,WeatherDisplay:10.37,2013-04-10 09:07:00,
2013-04-10 04:12:00,71.5,70.9,29.61,East,98,15.0,15.0,98,0.00,CLR,,0.00,WeatherDisplay:10.37,2013-04-10 09:12:00,
2013-04-10 04:17:00,71.5,70.9,29.61,SSE,165,8.1,8.1,98,0.00,CLR,,0.00,WeatherDisplay:10.37,2013-04-10 09:17:00,
2013-04-10 04:22:00,71.6,71.0,29.62,South,179,10.4,10.4,98,0.00,CLR,,0.00,WeatherDisplay:10.37,2013-04-10 09:22:00,
2013-04-10 04:27:00,71.6,71.0,29.62,ESE,115,13.8,13.8,98,0.00,CLR,,0.00,WeatherDisplay:10.37,2013-04-10 09:27:00,
2013-04-10 04:32:00,71.6,71.0,29.62,SE,142,17.3,17.3,98,0.00,CLR,,0.00,WeatherDisplay:10.37,2013-04-10 09:32:00,
2013-04-10 04:37:00,71.6,71.0,29.62,SE,139,15.0,15.0,98,0.00,CLR,,0.00,WeatherDisplay:10.37,2013-04-10 09:37:00,
2013-04-10 04:42:00,71.6,71.0,29.62,SE,124,12.7,12.7,98,0.00,CLR,,0.00,WeatherDisplay:10.37,2013-04-10 09:42:00,
2013-04-10 04:47:00,71.6,71.0,29.62,SE,124,8.1,8.1,98,0.00,CLR,,0.00,WeatherDisplay:10.37,2013-04-10 09:47:00,
2013-04-10 04:52:00,71.6,71.3,29.62,SE,127,10.4,10.4,99,0.00,CLR,,0.00,WeatherDisplay:10.37,2013-04-10 09:52:00,
2013-04-10 04:57:00,71.6,71.3,29.62,East,100,6.9,6.9,99,0.00,CLR,,0.00,WeatherDisplay:10.37,2013-04-10 09:57:00,
2013-04-10 05:02:00,71.6,71.3,29.62,SE,127,11.5,11.5,99,0.00,CLR,,0.00,WeatherDisplay:10.37,2013-04-10 10:02:00,
2013-04-10 05:07:00,71.5,71.2,29.62,SE,127,8.1,8.1,99,0.00,CLR,,0.00,WeatherDisplay:10.37,2013-04-10 10:07:00,
2013-04-10 05:12:00,71.5,71.2,29.62,ESE,104,6.9,6.9,99,0.00,CLR,,0.00,WeatherDisplay:10.37,2013-04-10 10:12:00,
2013-04-10 05:17:00,71.5,71.2,29.62,ESE,110,6.9,6.9,99,0.00,CLR,,0.00,WeatherDisplay:10.37,2013-04-10 10:17:00,
2013-04-10 05:22:00,71.4,71.1,29.62,SE,136,12.7,12.7,99,0.00,CLR,,0.00,WeatherDisplay:10.37,2013-04-10 10:22:00,
2013-04-10 05:27:00,71.4,71.1,29.62,ESE,109,10.4,10.4,99,0.00,CLR,,0.00,WeatherDisplay:10.37,2013-04-10 10:27:00,
2013-04-10 05:32:00,71.4,71.1,29.62,SE,133,13.8,13.8,99,0.00,CLR,,0.00,WeatherDisplay:10.37,2013-04-10 10:32:00,
2013-04-10 05:37:00,71.4,71.1,29.61,SE,131,8.1,8.1,99,0.00,CLR,,0.00,WeatherDisplay:10.37,2013-04-10 10:37:00,
2013-04-10 05:42:00,71.4,71.1,29.61,SSE,150,15.0,15.0,99,0.00,CLR,,0.00,WeatherDisplay:10.37,2013-04-10 10:42:00,
2013-04-10 05:47:00,71.4,71.1,29.60,SE,133,11.5,11.5,99,0.00,CLR,,0.00,WeatherDisplay:10.37,2013-04-10 10:47:00,
2013-04-10 05:52:00,71.4,71.1,29.60,SE,124,12.7,12.7,99,0.00,CLR,,0.00,WeatherDisplay:10.37,2013-04-10 10:52:00,
2013-04-10 05:57:00,71.4,71.1,29.60,ESE,112,9.2,9.2,99,0.00,CLR,,0.00,WeatherDisplay:10.37,2013-04-10 10:57:00,
2013-04-10 06:02:00,71.5,71.2,29.60,East,91,11.5,11.5,99,0.00,CLR,,0.00,WeatherDisplay:10.37,2013-04-10 11:02:00,
2013-04-10 06:07:00,71.4,71.1,29.60,ESE,107,11.5,11.5,99,0.00,CLR,,0.00,WeatherDisplay:10.37,2013-04-10 11:07:00,
2013-04-10 06:12:00,71.4,71.1,29.60,East,88,10.4,10.4,99,0.00,CLR,,0.00,WeatherDisplay:10.37,2013-04-10 11:12:00,
2013-04-10 06:17:00,71.4,71.1,29.60,ESE,115,10.4,10.4,99,0.00,CLR,,0.00,WeatherDisplay:10.37,2013-04-10 11:17:00,
2013-04-10 06:22:00,71.3,71.0,29.60,SSE,155,9.2,9.2,99,0.00,CLR,,0.00,WeatherDisplay:10.37,2013-04-10 11:22:00,
2013-04-10 06:27:00,71.4,71.1,29.60,SE,124,13.8,13.8,99,0.00,CLR,,0.00,WeatherDisplay:10.37,2013-04-10 11:27:00,
2013-04-10 06:32:00,71.4,71.1,29.60,SSE,148,5.8,7.1,99,0.00,CLR,,0.00,WeatherDisplay:10.37,2013-04-10 11:32:00,
2013-04-10 06:37:00,71.4,71.1,29.60,SE,125,11.5,11.5,99,0.00,CLR,,0.00,WeatherDisplay:10.37,2013-04-10 11:37:00,
2013-04-10 06:42:00,71.5,71.2,29.60,ESE,117,6.9,6.9,99,0.00,CLR,,0.00,WeatherDisplay:10.37,2013-04-10 11:42:00,
2013-04-10 06:47:00,71.5,71.2,29.61,SE,130,12.7,12.7,99,0.00,CLR,,0.00,WeatherDisplay:10.37,2013-04-10 11:47:00,
2013-04-10 06:52:00,71.5,71.2,29.61,East,100,5.8,5.8,99,0.00,CLR,,0.00,WeatherDisplay:10.37,2013-04-10 11:52:00,
2013-04-10 06:57:00,71.5,71.2,29.61,East,96,6.9,6.9,99,0.00,CLR,,0.00,WeatherDisplay:10.37,2013-04-10 11:57:00,
2013-04-10 07:02:00,71.4,71.1,29.61,SE,129,11.6,11.6,99,0.00,CLR,,0.00,WeatherDisplay:10.37,2013-04-10 12:02:00,
2013-04-10 07:07:00,71.3,71.0,29.61,SE,129,9.2,9.2,99,0.00,CLR,,0.00,WeatherDisplay:10.37,2013-04-10 12:07:00,
2013-04-10 07:12:00,71.3,71.0,29.60,ESE,122,10.4,10.4,99,0.00,CLR,,0.00,WeatherDisplay:10.37,2013-04-10 12:12:00,
2013-04-10 07:17:00,71.2,71.2,29.60,East,100,5.8,5.8,100,0.00,CLR,,0.00,WeatherDisplay:10.37,2013-04-10 12:17:00,
2013-04-10 07:23:00,71.2,71.2,29.60,SSE,155,16.1,16.1,100,0.00,CLR,,0.00,WeatherDisplay:10.37,2013-04-10 12:23:00,
2013-04-10 07:28:00,71.2,70.9,29.61,ESE,120,10.4,10.4,99,0.00,CLR,,0.00,WeatherDisplay:10.37,2013-04-10 12:28:00,
2013-04-10 07:33:00,71.2,70.9,29.61,SE,133,13.8,13.8,99,0.00,CLR,,0.00,WeatherDisplay:10.37,2013-04-10 12:33:00,
2013-04-10 07:38:00,71.2,71.2,29.61,SE,130,16.1,16.1,100,0.00,CLR,,0.00,WeatherDisplay:10.37,2013-04-10 12:38:00,
2013-04-10 07:43:00,71.2,71.2,29.61,SE,127,8.1,8.1,100,0.00,CLR,,0.00,WeatherDisplay:10.37,2013-04-10 12:43:00,
2013-04-10 07:48:00,71.2,71.2,29.61,SSE,152,10.4,10.4,100,0.00,CLR,,0.00,WeatherDisplay:10.37,2013-04-10 12:48:00,
2013-04-10 07:53:00,71.3,71.3,29.61,SE,131,6.9,6.9,100,0.00,CLR,,0.00,WeatherDisplay:10.37,2013-04-10 12:53:00,
2013-04-10 07:58:00,71.3,71.3,29.61,ESE,108,9.2,9.2,100,0.00,CLR,,0.00,WeatherDisplay:10.37,2013-04-10 12:58:00,
2013-04-10 08:03:00,71.4,71.4,29.61,SE,131,6.9,6.9,100,0.00,CLR,,0.00,WeatherDisplay:10.37,2013-04-10 13:03:00,
2013-04-10 08:08:00,71.5,71.5,29.61,ESE,105,10.4,10.4,100,0.00,CLR,,0.00,WeatherDisplay:10.37,2013-04-10 13:08:00,
2013-04-10 08:13:00,71.6,71.6,29.62,ESE,117,10.4,10.4,100,0.00,CLR,,0.00,WeatherDisplay:10.37,2013-04-10 13:13:00,
2013-04-10 08:18:00,71.7,71.7,29.62,ESE,106,5.8,5.8,100,0.00,CLR,,0.00,WeatherDisplay:10.37,2013-04-10 13:18:00,
2013-04-10 08:23:00,71.8,71.5,29.62,ESE,121,5.8,5.8,99,0.00,CLR,,0.00,WeatherDisplay:10.37,2013-04-10 13:23:00,
2013-04-10 08:28:00,71.9,71.6,29.62,SSE,159,5.8,5.8,99,0.00,CLR,,0.00,WeatherDisplay:10.37,2013-04-10 13:28:00,
2013-04-10 08:33:00,72.0,71.7,29.62,South,176,8.1,8.1,99,0.00,CLR,,0.00,WeatherDisplay:10.37,2013-04-10 13:33:00,
2013-04-10 08:38:00,72.1,71.8,29.63,SE,142,12.7,12.7,99,0.00,CLR,,0.00,WeatherDisplay:10.37,2013-04-10 13:38:00,
2013-04-10 08:43:00,72.2,71.9,29.63,SSW,192,6.9,6.9,99,0.00,CLR,,0.00,WeatherDisplay:10.37,2013-04-10 13:43:00,
2013-04-10 08:48:00,72.3,72.0,29.64,SSE,148,12.7,12.7,99,0.00,CLR,,0.00,WeatherDisplay:10.37,2013-04-10 13:48:00,
2013-04-10 08:53:00,72.3,72.0,29.64,SSE,150,5.8,5.8,99,0.00,CLR,,0.00,WeatherDisplay:10.37,2013-04-10 13:53:00,
2013-04-10 08:58:00,72.3,72.0,29.64,SSW,193,6.9,6.9,99,0.00,CLR,,0.00,WeatherDisplay:10.37,2013-04-10 13:58:00,
2013-04-10 09:03:00,72.3,71.7,29.65,ESE,115,12.7,12.7,98,0.00,CLR,,0.00,WeatherDisplay:10.37,2013-04-10 14:03:00,
2013-04-10 09:08:00,72.4,71.8,29.65,SSE,155,6.9,6.9,98,0.00,CLR,,0.00,WeatherDisplay:10.37,2013-04-10 14:08:00,
2013-04-10 09:13:00,72.5,72.2,29.65,SE,136,4.6,4.6,99,0.00,CLR,,0.00,WeatherDisplay:10.37,2013-04-10 14:13:00,
2013-04-10 09:18:00,72.7,72.1,29.65,South,185,15.0,15.0,98,0.00,CLR,,0.00,WeatherDisplay:10.37,2013-04-10 14:18:00,
2013-04-10 09:23:00,72.7,72.1,29.66,South,178,10.4,10.4,98,0.00,CLR,,0.00,WeatherDisplay:10.37,2013-04-10 14:23:00,
2013-04-10 09:28:00,72.8,72.2,29.67,South,185,11.5,11.5,98,0.00,CLR,,0.00,WeatherDisplay:10.37,2013-04-10 14:28:00,
2013-04-10 09:33:00,72.9,72.3,29.68,SSW,202,8.1,8.1,98,0.00,CLR,,0.00,WeatherDisplay:10.37,2013-04-10 14:33:00,
2013-04-10 09:38:00,72.9,72.0,29.68,South,191,10.4,10.4,97,0.00,CLR,,0.00,WeatherDisplay:10.37,2013-04-10 14:38:00,
2013-04-10 09:43:00,73.0,72.1,29.68,SSW,201,4.6,4.6,97,0.00,CLR,,0.00,WeatherDisplay:10.37,2013-04-10 14:43:00,
2013-04-10 09:48:00,73.1,72.2,29.68,South,186,5.8,5.8,97,0.00,CLR,,0.00,WeatherDisplay:10.37,2013-04-10 14:48:00,
2013-04-10 09:53:00,73.2,72.3,29.68,South,188,5.8,5.8,97,0.00,CLR,,0.00,WeatherDisplay:10.37,2013-04-10 14:53:00,
2013-04-10 09:58:00,73.3,72.4,29.68,South,171,10.4,10.4,97,0.00,CLR,,0.00,WeatherDisplay:10.37,2013-04-10 14:58:00,
2013-04-10 10:03:00,73.3,72.4,29.69,South,190,12.7,12.7,97,0.00,CLR,,0.00,WeatherDisplay:10.37,2013-04-10 15:03:00,
2013-04-10 10:08:00,73.4,72.5,29.69,SSW,212,5.8,5.8,97,0.00,CLR,,0.00,WeatherDisplay:10.37,2013-04-10 15:08:00,
2013-04-10 10:13:00,73.5,72.6,29.70,SSW,198,10.4,10.4,97,0.00,CLR,,0.00,WeatherDisplay:10.37,2013-04-10 15:13:00,
2013-04-10 10:18:00,73.5,72.3,29.70,SSW,193,11.5,11.5,96,0.00,CLR,,0.00,WeatherDisplay:10.37,2013-04-10 15:18:00,
2013-04-10 10:23:00,73.6,72.4,29.70,South,191,11.5,11.5,96,0.00,CLR,,0.00,WeatherDisplay:10.37,2013-04-10 15:23:00,
2013-04-10 10:28:00,73.6,72.4,29.70,SSW,202,18.4,18.4,96,0.00,CLR,,0.00,WeatherDisplay:10.37,2013-04-10 15:28:00,
2013-04-10 10:33:00,73.7,72.5,29.70,South,187,11.5,11.5,96,0.00,CLR,,0.00,WeatherDisplay:10.37,2013-04-10 15:33:00,
2013-04-10 10:38:00,73.7,72.5,29.70,SSW,210,10.4,10.4,96,0.00,CLR,,0.00,WeatherDisplay:10.37,2013-04-10 15:38:00,
2013-04-10 10:43:00,73.8,72.6,29.70,SSW,202,15.0,15.0,96,0.00,CLR,,0.00,WeatherDisplay:10.37,2013-04-10 15:43:00,
2013-04-10 10:48:00,73.8,72.3,29.71,SSW,193,9.2,9.2,95,0.00,CLR,,0.00,WeatherDisplay:10.37,2013-04-10 15:48:00,
2013-04-10 10:53:00,73.9,72.4,29.71,SSW,192,11.5,11.5,95,0.00,CLR,,0.00,WeatherDisplay:10.37,2013-04-10 15:53:00,
2013-04-10 10:58:00,74.0,72.5,29.71,South,190,6.3,6.3,95,0.00,CLR,,0.00,WeatherDisplay:10.37,2013-04-10 15:58:00,
2013-04-10 11:03:00,74.2,72.7,29.71,SSW,192,4.6,4.6,95,0.00,CLR,,0.00,WeatherDisplay:10.37,2013-04-10 16:03:00,
2013-04-10 11:08:00,74.3,72.8,29.70,SSW,195,10.4,10.4,95,0.00,CLR,,0.00,WeatherDisplay:10.37,2013-04-10 16:08:00,
2013-04-10 11:13:00,74.3,72.5,29.71,South,186,11.5,11.5,94,0.00,CLR,,0.00,WeatherDisplay:10.37,2013-04-10 16:13:00,
2013-04-10 11:18:00,74.5,72.7,29.71,South,175,10.4,10.4,94,0.00,CLR,,0.00,WeatherDisplay:10.37,2013-04-10 16:18:00,
2013-04-10 11:23:00,74.7,72.9,29.71,SSW,206,9.2,9.2,94,0.00,CLR,,0.00,WeatherDisplay:10.37,2013-04-10 16:23:00,
2013-04-10 11:28:00,75.0,73.2,29.71,SSW,212,9.2,9.2,94,0.00,CLR,,0.00,WeatherDisplay:10.37,2013-04-10 16:28:00,
2013-04-10 11:33:00,75.4,73.2,29.71,South,181,11.5,11.5,93,0.00,CLR,,0.00,WeatherDisplay:10.37,2013-04-10 16:33:00,
2013-04-10 11:38:00,75.4,73.2,29.71,SSE,161,13.8,13.8,93,0.00,CLR,,0.00,WeatherDisplay:10.37,2013-04-10 16:38:00,
2013-04-10 11:43:00,75.6,73.1,29.71,South,187,5.8,5.8,92,0.00,CLR,,0.00,WeatherDisplay:10.37,2013-04-10 16:43:00,
2013-04-10 11:48:00,75.5,73.0,29.71,SE,140,9.2,9.2,92,0.00,CLR,,0.00,WeatherDisplay:10.37,2013-04-10 16:48:00,
2013-04-10 11:53:00,75.6,73.1,29.71,SSW,193,5.8,5.8,92,0.00,CLR,,0.00,WeatherDisplay:10.37,2013-04-10 16:53:00,
2013-04-10 11:58:00,75.7,73.2,29.71,South,172,4.6,4.6,92,0.00,CLR,,0.00,WeatherDisplay:10.37,2013-04-10 16:58:00,
2013-04-10 12:03:00,75.8,73.3,29.71,South,178,10.4,10.4,92,0.00,CLR,,0.00,WeatherDisplay:10.37,2013-04-10 17:03:00,
2013-04-10 12:08:00,75.8,73.3,29.70,SSE,162,6.9,6.9,92,0.00,CLR,,0.00,WeatherDisplay:10.37,2013-04-10 17:08:00,
2013-04-10 12:13:00,75.9,73.4,29.70,South,188,5.8,5.8,92,0.00,CLR,,0.00,WeatherDisplay:10.37,2013-04-10 17:13:00,
2013-04-10 12:18:00,75.9,73.4,29.70,South,184,4.6,4.6,92,0.00,CLR,,0.00,WeatherDisplay:10.37,2013-04-10 17:18:00,
2013-04-10 12:23:00,75.9,73.4,29.70,South,190,5.8,5.8,92,0.00,CLR,,0.00,WeatherDisplay:10.37,2013-04-10 17:23:00,
2013-04-10 12:28:00,76.0,73.5,29.70,SSE,158,5.8,5.8,92,0.00,CLR,,0.00,WeatherDisplay:10.37,2013-04-10 17:28:00,
2013-04-10 12:33:00,76.3,73.8,29.70,South,190,1.1,1.1,92,0.00,CLR,,0.00,WeatherDisplay:10.37,2013-04-10 17:33:00,
2013-04-10 12:38:00,76.5,73.7,29.70,South,188,5.8,5.8,91,0.00,CLR,,0.00,WeatherDisplay:10.37,2013-04-10 17:38:00,
2013-04-10 12:43:00,76.7,73.9,29.70,SSW,206,1.1,1.1,91,0.00,CLR,,0.00,WeatherDisplay:10.37,2013-04-10 17:43:00,
2013-04-10 12:48:00,76.9,74.1,29.70,South,190,3.5,3.5,91,0.00,CLR,,0.00,WeatherDisplay:10.37,2013-04-10 17:48:00,
2013-04-10 12:53:00,77.1,73.9,29.70,South,190,8.1,8.1,90,0.00,CLR,,0.00,WeatherDisplay:10.37,2013-04-10 17:53:00,
2013-04-10 12:58:00,77.3,73.8,29.70,SSW,200,5.8,5.8,89,0.00,CLR,,0.00,WeatherDisplay:10.37,2013-04-10 17:58:00,
2013-04-10 13:03:00,77.2,73.7,29.70,SSW,198,5.8,5.8,89,0.00,CLR,,0.00,WeatherDisplay:10.37,2013-04-10 18:03:00,
2013-04-10 13:08:00,77.1,73.6,29.70,SSE,160,3.5,3.5,89,0.00,CLR,,0.00,WeatherDisplay:10.37,2013-04-10 18:08:00,
2013-04-10 13:13:00,77.1,73.6,29.69,South,184,4.6,4.6,89,0.00,CLR,,0.00,WeatherDisplay:10.37,2013-04-10 18:13:00,
2013-04-10 13:18:00,77.1,73.6,29.70,SSW,200,4.6,4.6,89,0.00,CLR,,0.00,WeatherDisplay:10.37,2013-04-10 18:18:00,
2013-04-10 13:23:00,77.0,73.5,29.69,SSE,151,5.8,5.8,89,0.00,CLR,,0.00,WeatherDisplay:10.37,2013-04-10 18:23:00,
2013-04-10 13:28:00,77.0,73.5,29.69,SSW,202,3.2,3.2,89,0.00,CLR,,0.00,WeatherDisplay:10.37,2013-04-10 18:28:00,
2013-04-10 13:33:00,77.0,73.5,29.69,SE,127,3.5,3.5,89,0.00,CLR,,0.00,WeatherDisplay:10.37,2013-04-10 18:33:00,
2013-04-10 13:38:00,76.9,73.4,29.68,South,177,5.8,5.8,89,0.00,CLR,,0.00,WeatherDisplay:10.37,2013-04-10 18:38:00,
2013-04-10 13:43:00,76.8,73.3,29.68,ESE,120,4.6,4.6,89,0.00,CLR,,0.00,WeatherDisplay:10.37,2013-04-10 18:43:00,
2013-04-10 13:48:00,76.6,73.1,29.68,SE,138,3.5,3.5,89,0.00,CLR,,0.00,WeatherDisplay:10.37,2013-04-10 18:48:00,
2013-04-10 13:53:00,76.4,73.2,29.68,SE,136,5.8,5.8,90,0.00,CLR,,0.00,WeatherDisplay:10.37,2013-04-10 18:53:00,
2013-04-10 13:58:00,76.3,73.1,29.68,SSW,192,5.8,5.8,90,0.00,CLR,,0.00,WeatherDisplay:10.37,2013-04-10 18:58:00,
2013-04-10 14:03:00,76.5,73.7,29.68,SE,143,4.6,4.6,91,0.00,CLR,,0.00,WeatherDisplay:10.37,2013-04-10 19:03:00,
2013-04-10 14:08:00,77.2,74.4,29.67,South,189,5.8,5.8,91,0.00,CLR,,0.00,WeatherDisplay:10.37,2013-04-10 19:08:00,
2013-04-10 14:13:00,77.5,74.0,29.67,ESE,108,5.8,5.8,89,0.00,CLR,,0.00,WeatherDisplay:10.37,2013-04-10 19:13:00,
2013-04-10 14:18:00,78.4,74.9,29.67,SSW,202,3.5,3.5,89,0.00,CLR,,0.00,WeatherDisplay:10.37,2013-04-10 19:18:00,
2013-04-10 14:23:00,77.3,67.2,29.70,NNE,18,27.6,27.6,71,0.00,CLR,,0.00,WeatherDisplay:10.37,2013-04-10 19:23:00,
2013-04-10 14:28:00,67.6,58.6,29.71,NNE,25,21.9,21.9,73,0.00,CLR,,0.00,WeatherDisplay:10.37,2013-04-10 19:28:00,
2013-04-10 14:33:00,63.1,57.5,29.71,North,0,15.0,15.0,82,0.00,CLR,,0.00,WeatherDisplay:10.37,2013-04-10 19:33:00,
2013-04-10 14:38:00,61.1,56.2,29.72,North,353,18.4,18.4,84,0.00,CLR,,0.00,WeatherDisplay:10.37,2013-04-10 19:38:00,
2013-04-10 14:43:00,60.1,55.9,29.72,North,4,18.4,18.4,86,0.00,CLR,,0.00,WeatherDisplay:10.37,2013-04-10 19:43:00,
2013-04-10 14:48:00,59.3,55.7,29.72,North,354,15.0,15.0,88,0.00,CLR,,0.00,WeatherDisplay:10.37,2013-04-10 19:48:00,
2013-04-10 14:53:00,58.9,55.7,29.72,NW,312,18.4,18.4,89,0.00,CLR,,0.00,WeatherDisplay:10.37,2013-04-10 19:53:00,
2013-04-10 14:58:00,58.9,55.7,29.73,WNW,300,18.4,18.4,89,0.00,CLR,,0.00,WeatherDisplay:10.37,2013-04-10 19:58:00,
2013-04-10 15:03:00,58.9,56.0,29.73,NW,308,16.1,16.1,90,0.00,CLR,,0.00,WeatherDisplay:10.37,2013-04-10 20:03:00,
2013-04-10 15:08:00,59.0,55.8,29.73,NNE,32,18.4,18.4,89,0.00,CLR,,0.00,WeatherDisplay:10.37,2013-04-10 20:08:00,
2013-04-10 15:13:00,59.1,55.5,29.73,North,356,17.3,17.3,88,0.00,CLR,,0.00,WeatherDisplay:10.37,2013-04-10 20:13:00,
2013-04-10 15:18:00,59.0,55.4,29.73,North,1,12.7,12.7,88,0.00,CLR,,0.00,WeatherDisplay:10.37,2013-04-10 20:18:00,
2013-04-10 15:23:00,58.5,55.0,29.73,North,354,18.4,18.4,88,0.00,CLR,,0.00,WeatherDisplay:10.37,2013-04-10 20:23:00,
2013-04-10 15:28:00,58.2,55.0,29.73,NNW,329,18.4,18.4,89,0.00,CLR,,0.00,WeatherDisplay:10.37,2013-04-10 20:28:00,
2013-04-10 15:34:00,58.0,54.8,29.73,North,355,15.0,15.0,89,0.00,CLR,,0.00,WeatherDisplay:10.37,2013-04-10 20:34:00,
2013-04-10 15:39:00,58.0,54.5,29.73,NW,321,15.0,15.0,88,0.00,CLR,,0.00,WeatherDisplay:10.37,2013-04-10 20:39:00,
2013-04-10 15:44:00,57.9,54.4,29.73,North,3,16.1,16.1,88,0.00,CLR,,0.00,WeatherDisplay:10.37,2013-04-10 20:44:00,
2013-04-10 15:49:00,57.6,54.1,29.72,NNE,28,17.3,17.3,88,0.00,CLR,,0.00,WeatherDisplay:10.37,2013-04-10 20:49:00,
2013-04-10 15:54:00,57.6,54.1,29.72,North,359,16.1,16.1,88,0.00,CLR,,0.00,WeatherDisplay:10.37,2013-04-10 20:54:00,
2013-04-10 15:59:00,57.8,54.3,29.72,North,9,12.7,12.7,88,0.00,CLR,,0.00,WeatherDisplay:10.37,2013-04-10 20:59:00,
2013-04-10 16:04:00,58.0,54.2,29.71,North,1,16.1,16.1,87,0.00,CLR,,0.00,WeatherDisplay:10.37,2013-04-10 21:04:00,
2013-04-10 16:09:00,57.9,54.1,29.72,North,1,18.4,18.4,87,0.00,CLR,,0.00,WeatherDisplay:10.37,2013-04-10 21:09:00,
2013-04-10 16:14:00,57.9,54.1,29.72,NNW,336,17.3,17.3,87,0.00,CLR,,0.00,WeatherDisplay:10.37,2013-04-10 21:14:00,
2013-04-10 16:19:00,57.8,54.0,29.72,North,0,16.1,16.1,87,0.00,CLR,,0.00,WeatherDisplay:10.37,2013-04-10 21:19:00,
2013-04-10 16:24:00,57.8,54.0,29.72,North,356,16.1,16.1,87,0.00,CLR,,0.00,WeatherDisplay:10.37,2013-04-10 21:24:00,
2013-04-10 16:29:00,57.6,54.1,29.72,NNW,341,13.8,13.8,88,0.00,CLR,,0.00,WeatherDisplay:10.37,2013-04-10 21:29:00,
2013-04-10 16:34:00,57.2,53.7,29.72,NNW,333,16.1,16.1,88,0.00,CLR,,0.00,WeatherDisplay:10.37,2013-04-10 21:34:00,
2013-04-10 16:39:00,57.2,53.7,29.72,North,1,15.0,15.0,88,0.00,CLR,,0.00,WeatherDisplay:10.37,2013-04-10 21:39:00,
2013-04-10 16:44:00,57.3,54.1,29.71,North,0,20.0,20.0,89,0.00,CLR,,0.00,WeatherDisplay:10.37,2013-04-10 21:44:00,
2013-04-10 16:49:00,57.2,54.0,29.71,NNE,13,19.6,19.6,89,0.00,CLR,,0.00,WeatherDisplay:10.37,2013-04-10 21:49:00,
2013-04-10 16:54:00,57.2,54.0,29.71,NNW,334,15.8,15.8,89,0.00,CLR,,0.00,WeatherDisplay:10.37,2013-04-10 21:54:00,
2013-04-10 16:59:00,57.4,54.2,29.71,NNW,341,13.8,13.8,89,0.00,CLR,,0.00,WeatherDisplay:10.37,2013-04-10 21:59:00,
2013-04-10 17:04:00,57.5,54.3,29.71,NNW,340,18.4,18.4,89,0.00,CLR,,0.00,WeatherDisplay:10.37,2013-04-10 22:04:00,
2013-04-10 17:09:00,57.6,54.4,29.71,NNE,19,15.0,15.0,89,0.00,CLR,,0.00,WeatherDisplay:10.37,2013-04-10 22:09:00,
2013-04-10 17:14:00,57.8,54.6,29.71,NE,34,13.8,13.8,89,0.00,CLR,,0.00,WeatherDisplay:10.37,2013-04-10 22:14:00,
2013-04-10 17:19:00,58.0,54.5,29.71,North,11,16.1,16.1,88,0.00,CLR,,0.00,WeatherDisplay:10.37,2013-04-10 22:19:00,
2013-04-10 17:24:00,58.1,54.6,29.71,NW,325,17.3,17.3,88,0.00,CLR,,0.00,WeatherDisplay:10.37,2013-04-10 22:24:00,
2013-04-10 17:29:00,58.3,54.8,29.71,North,7,10.5,10.5,88,0.00,CLR,,0.00,WeatherDisplay:10.37,2013-04-10 22:29:00,
2013-04-10 17:35:00,58.3,54.8,29.71,North,1,11.5,11.5,88,0.00,CLR,,0.00,WeatherDisplay:10.37,2013-04-10 22:35:00,
2013-04-10 17:40:00,58.2,54.7,29.71,North,359,13.8,13.8,88,0.00,CLR,,0.00,WeatherDisplay:10.37,2013-04-10 22:40:00,
2013-04-10 17:45:00,58.2,54.7,29.71,NNE,15,10.4,10.4,88,0.00,CLR,,0.00,WeatherDisplay:10.37,2013-04-10 22:45:00,
2013-04-10 17:50:00,58.2,54.7,29.71,North,349,15.0,15.0,88,0.00,CLR,,0.00,WeatherDisplay:10.37,2013-04-10 22:50:00,
2013-04-10 17:55:00,58.1,54.6,29.71,North,11,9.2,9.2,88,0.00,CLR,,0.00,WeatherDisplay:10.37,2013-04-10 22:55:00,
2013-04-10 18:00:00,58.2,54.7,29.71,North,357,9.2,9.2,88,0.00,CLR,,0.00,WeatherDisplay:10.37,2013-04-10 23:00:00,
2013-04-10 18:05:00,58.0,54.2,29.71,North,1,12.7,12.7,87,0.00,CLR,,0.00,WeatherDisplay:10.37,2013-04-10 23:05:00,
2013-04-10 18:10:00,58.0,54.2,29.71,NNE,13,11.5,11.5,87,0.00,CLR,,0.00,WeatherDisplay:10.37,2013-04-10 23:10:00,
2013-04-10 18:15:00,58.0,54.2,29.71,NNW,341,12.7,12.7,87,0.00,CLR,,0.00,WeatherDisplay:10.37,2013-04-10 23:15:00,
2013-04-10 18:20:00,57.9,54.1,29.71,NNW,328,10.4,10.4,87,0.00,CLR,,0.00,WeatherDisplay:10.37,2013-04-10 23:20:00,
2013-04-10 18:25:00,58.0,53.8,29.71,NNE,18,10.4,10.4,86,0.00,CLR,,0.00,WeatherDisplay:10.37,2013-04-10 23:25:00,
2013-04-10 18:30:00,57.9,53.7,29.71,NNE,27,13.8,13.8,86,0.00,CLR,,0.00,WeatherDisplay:10.37,2013-04-10 23:30:00,
2013-04-10 18:35:00,57.7,53.5,29.71,NW,321,15.0,15.0,86,0.00,CLR,,0.00,WeatherDisplay:10.37,2013-04-10 23:35:00,
2013-04-10 18:40:00,57.7,53.5,29.71,NNE,13,9.2,9.2,86,0.00,CLR,,0.00,WeatherDisplay:10.37,2013-04-10 23:40:00,
2013-04-10 18:45:00,57.9,53.7,29.71,North,359,10.4,10.4,86,0.00,CLR,,0.00,WeatherDisplay:10.37,2013-04-10 23:45:00,
2013-04-10 18:50:00,58.0,53.8,29.71,North,11,13.8,13.8,86,0.00,CLR,,0.00,WeatherDisplay:10.37,2013-04-10 23:50:00,
2013-04-10 18:55:00,58.0,53.8,29.72,North,355,10.4,10.4,86,0.00,CLR,,0.00,WeatherDisplay:10.37,2013-04-10 23:55:00,
2013-04-10 19:00:00,58.1,53.6,29.71,North,3,18.4,18.4,85,0.00,CLR,,0.00,WeatherDisplay:10.37,2013-04-11 00:00:00,
2013-04-10 19:05:00,58.1,53.6,29.71,North,354,13.8,13.8,85,0.00,CLR,,0.00,WeatherDisplay:10.37,2013-04-11 00:05:00,
2013-04-10 19:10:00,58.2,53.7,29.71,NNE,33,12.7,12.7,85,0.00,CLR,,0.00,WeatherDisplay:10.37,2013-04-11 00:10:00,
2013-04-10 19:15:00,58.3,53.8,29.71,ENE,60,12.7,12.7,85,0.00,CLR,,0.00,WeatherDisplay:10.37,2013-04-11 00:15:00,
2013-04-10 19:20:00,58.4,53.9,29.71,North,359,16.1,16.1,85,0.00,CLR,,0.00,WeatherDisplay:10.37,2013-04-11 00:20:00,
2013-04-10 19:25:00,58.5,54.0,29.72,NNW,330,15.0,15.0,85,0.00,CLR,,0.00,WeatherDisplay:10.37,2013-04-11 00:25:00,
2013-04-10 19:30:00,58.6,54.1,29.72,NNE,33,10.4,10.4,85,0.00,CLR,,0.00,WeatherDisplay:10.37,2013-04-11 00:30:00,
2013-04-10 19:35:00,58.7,54.2,29.72,North,1,16.1,16.1,85,0.00,CLR,,0.00,WeatherDisplay:10.37,2013-04-11 00:35:00,
2013-04-10 19:40:00,58.8,54.0,29.72,NNE,30,18.4,18.4,84,0.00,CLR,,0.00,WeatherDisplay:10.37,2013-04-11 00:40:00,
2013-04-10 19:45:00,58.8,54.0,29.72,North,359,17.3,17.3,84,0.00,CLR,,0.00,WeatherDisplay:10.37,2013-04-11 00:45:00,
2013-04-10 19:50:00,58.9,54.1,29.72,North,358,16.1,16.1,84,0.00,CLR,,0.00,WeatherDisplay:10.37,2013-04-11 00:50:00,
2013-04-10 19:55:00,59.1,54.3,29.73,North,359,17.3,17.3,84,0.00,CLR,,0.00,WeatherDisplay:10.37,2013-04-11 00:55:00,
2013-04-10 20:00:00,59.1,53.9,29.73,NNE,13,17.3,17.3,83,0.00,CLR,,0.00,WeatherDisplay:10.37,2013-04-11 01:00:00,
2013-04-10 20:05:00,59.2,54.0,29.73,NE,39,13.8,13.8,83,0.00,CLR,,0.00,WeatherDisplay:10.37,2013-04-11 01:05:00,
2013-04-10 20:10:00,59.2,54.0,29.73,North,4,16.1,16.1,83,0.00,CLR,,0.00,WeatherDisplay:10.37,2013-04-11 01:10:00,
2013-04-10 20:15:00,59.3,54.1,29.73,NNW,341,16.1,16.1,83,0.00,CLR,,0.00,WeatherDisplay:10.37,2013-04-11 01:15:00,
2013-04-10 20:20:00,59.3,54.1,29.73,North,8,12.7,12.7,83,0.00,CLR,,0.00,WeatherDisplay:10.37,2013-04-11 01:20:00,
2013-04-10 20:25:00,59.3,54.1,29.74,NNE,33,13.8,13.8,83,0.00,CLR,,0.00,WeatherDisplay:10.37,2013-04-11 01:25:00,
2013-04-10 20:30:00,59.2,54.0,29.74,North,351,12.7,12.7,83,0.00,CLR,,0.00,WeatherDisplay:10.37,2013-04-11 01:30:00,
2013-04-10 20:35:00,59.3,54.1,29.74,NNE,14,15.0,15.0,83,0.00,CLR,,0.00,WeatherDisplay:10.37,2013-04-11 01:35:00,
2013-04-10 20:40:00,59.2,54.0,29.74,North,356,11.5,11.5,83,0.00,CLR,,0.00,WeatherDisplay:10.37,2013-04-11 01:40:00,
2013-04-10 20:45:00,59.2,54.0,29.74,NNE,15,13.8,13.8,83,0.00,CLR,,0.00,WeatherDisplay:10.37,2013-04-11 01:45:00,
2013-04-10 20:50:00,59.2,54.0,29.75,NNW,342,17.3,17.3,83,0.00,CLR,,0.00,WeatherDisplay:10.37,2013-04-11 01:50:00,
2013-04-10 20:55:00,59.0,53.8,29.75,NNE,24,12.7,12.7,83,0.00,CLR,,0.00,WeatherDisplay:10.37,2013-04-11 01:55:00,
2013-04-10 21:00:00,59.0,53.8,29.75,NE,48,12.7,12.7,83,0.00,CLR,,0.00,WeatherDisplay:10.37,2013-04-11 02:00:00,
2013-04-10 21:05:00,59.0,53.5,29.75,NNE,16,16.1,16.1,82,0.00,CLR,,0.00,WeatherDisplay:10.37,2013-04-11 02:05:00,
2013-04-10 21:10:00,59.0,53.5,29.75,NNE,21,12.7,12.7,82,0.00,CLR,,0.00,WeatherDisplay:10.37,2013-04-11 02:10:00,
2013-04-10 21:15:00,59.0,53.8,29.75,NNE,28,18.4,18.4,83,0.00,CLR,,0.00,WeatherDisplay:10.37,2013-04-11 02:15:00,
2013-04-10 21:20:00,59.0,53.8,29.75,NE,37,13.8,13.8,83,0.00,CLR,,0.00,WeatherDisplay:10.37,2013-04-11 02:20:00,
2013-04-10 21:25:00,58.9,53.7,29.75,NNE,23,18.4,18.4,83,0.00,CLR,,0.00,WeatherDisplay:10.37,2013-04-11 02:25:00,
2013-04-10 21:30:00,58.8,53.6,29.76,North,353,10.4,10.4,83,0.00,CLR,,0.00,WeatherDisplay:10.37,2013-04-11 02:30:00,
2013-04-10 21:35:00,58.8,53.6,29.76,North,1,16.1,16.1,83,0.00,CLR,,0.00,WeatherDisplay:10.37,2013-04-11 02:35:00,
2013-04-10 21:40:00,58.8,53.3,29.76,NNW,330,18.4,18.4,82,0.00,CLR,,0.00,WeatherDisplay:10.37,2013-04-11 02:40:00,
2013-04-10 21:45:00,58.5,53.0,29.76,North,358,16.1,16.1,82,0.00,CLR,,0.00,WeatherDisplay:10.37,2013-04-11 02:45:00,
2013-04-10 21:50:00,58.5,53.0,29.76,NE,41,13.8,13.8,82,0.00,CLR,,0.00,WeatherDisplay:10.37,2013-04-11 02:50:00,
2013-04-10 21:55:00,58.4,52.9,29.77,NNE,27,13.8,13.8,82,0.00,CLR,,0.00,WeatherDisplay:10.37,2013-04-11 02:55:00,
2013-04-10 22:00:00,58.3,52.8,29.77,North,1,15.0,15.0,82,0.00,CLR,,0.00,WeatherDisplay:10.37,2013-04-11 03:00:00,
2013-04-10 22:05:00,58.3,52.8,29.77,NE,36,19.6,19.6,82,0.00,CLR,,0.00,WeatherDisplay:10.37,2013-04-11 03:05:00,
2013-04-10 22:10:00,58.3,52.8,29.77,NE,49,16.1,16.1,82,0.00,CLR,,0.00,WeatherDisplay:10.37,2013-04-11 03:10:00,
2013-04-10 22:15:00,58.1,52.6,29.77,North,11,17.3,17.3,82,0.00,CLR,,0.00,WeatherDisplay:10.37,2013-04-11 03:15:00,
2013-04-10 22:20:00,58.1,52.6,29.77,NNE,25,18.4,18.4,82,0.00,CLR,,0.00,WeatherDisplay:10.37,2013-04-11 03:20:00,
2013-04-10 22:25:00,57.9,52.4,29.77,NE,37,14.7,14.7,82,0.00,CLR,,0.00,WeatherDisplay:10.37,2013-04-11 03:25:00,
2013-04-10 22:30:00,57.9,52.8,29.77,NNE,12,12.7,12.7,83,0.00,CLR,,0.00,WeatherDisplay:10.37,2013-04-11 03:30:00,
2013-04-10 22:35:00,57.9,52.8,29.77,North,9,6.9,6.9,83,0.00,CLR,,0.00,WeatherDisplay:10.37,2013-04-11 03:35:00,
2013-04-10 22:40:00,58.0,52.9,29.77,NNE,22,10.4,10.4,83,0.00,CLR,,0.00,WeatherDisplay:10.37,2013-04-11 03:40:00,
2013-04-10 22:45:00,57.9,52.8,29.77,NNW,343,13.8,13.8,83,0.00,CLR,,0.00,WeatherDisplay:10.37,2013-04-11 03:45:00,
2013-04-10 22:50:00,57.9,52.8,29.77,North,1,13.8,13.8,83,0.00,CLR,,0.00,WeatherDisplay:10.37,2013-04-11 03:50:00,
2013-04-10 22:55:00,57.8,52.7,29.78,NNE,20,11.5,11.5,83,0.00,CLR,,0.00,WeatherDisplay:10.37,2013-04-11 03:55:00,
2013-04-10 23:00:00,57.6,52.5,29.78,North,0,11.5,11.5,83,0.00,CLR,,0.00,WeatherDisplay:10.37,2013-04-11 04:00:00,
2013-04-10 23:05:00,57.5,52.4,29.79,NNE,24,15.0,15.0,83,0.00,CLR,,0.00,WeatherDisplay:10.37,2013-04-11 04:05:00,
2013-04-10 23:10:00,57.5,52.4,29.79,North,10,12.7,12.7,83,0.00,CLR,,0.00,WeatherDisplay:10.37,2013-04-11 04:10:00,
2013-04-10 23:15:00,57.5,52.4,29.79,North,6,17.3,17.3,83,0.00,CLR,,0.00,WeatherDisplay:10.37,2013-04-11 04:15:00,
2013-04-10 23:20:00,57.4,51.9,29.80,North,6,15.0,15.0,82,0.00,CLR,,0.00,WeatherDisplay:10.37,2013-04-11 04:20:00,
2013-04-10 23:25:00,57.5,52.0,29.80,North,357,12.7,12.7,82,0.00,CLR,,0.00,WeatherDisplay:10.37,2013-04-11 04:25:00,
2013-04-10 23:30:00,57.4,51.9,29.80,North,351,12.7,12.7,82,0.00,CLR,,0.00,WeatherDisplay:10.37,2013-04-11 04:30:00,
2013-04-10 23:35:00,57.2,51.4,29.80,NE,38,18.4,18.4,81,0.00,CLR,,0.00,WeatherDisplay:10.37,2013-04-11 04:35:00,
2013-04-10 23:40:00,57.1,51.3,29.80,NNE,24,16.1,16.1,81,0.00,CLR,,0.00,WeatherDisplay:10.37,2013-04-11 04:40:00,
2013-04-10 23:45:00,57.1,51.3,29.81,NNE,22,10.4,10.4,81,0.00,CLR,,0.00,WeatherDisplay:10.37,2013-04-11 04:45:00,
2013-04-10 23:50:00,57.0,51.2,29.81,North,359,10.4,10.4,81,0.00,CLR,,0.00,WeatherDisplay:10.37,2013-04-11 04:50:00,
2013-04-10 23:55:00,57.0,51.2,29.82,NNE,13,16.1,16.1,81,0.00,CLR,,0.00,WeatherDisplay:10.37,2013-04-11 04:55:00,